Decoded Metar for GMMI (ESSADOUIRA in MOROCCO) (IATA:N/A) | Meteo·Mobile Aviation Weather
aviador You're here:

GMMI Decoded Metar

ESSADOUIRA in MOROCCO
Report Time2018-09-21 17:00:00
UTC Time2018-09-21 17:21:03
Flight Rules mvfr MVFR
Wind010° at 16 kt
W.Decomp.*RWY 34: 13.4 kt HW 8.7 kt RCW
W.Rank010° ranks 9
Current wind is above 010° avg. (10.7)
Visibility6000 m
Phenomena:N/A
Clouds:N/A
Expected CloudBase > 4,000 ft AGL from Temp-Dew spread
CeilingNone
Temp28°C (ISA +13)
Dew Point18°C (55% RH)
Heat Index28.9°C
AAT25.1°C
QNH1014 hPa
Density Alt1,768 ft
Elevation26 ft
Report Wrong Elevation
Raw Report
METAR GMMI 211700Z 01016KT 6000 NSC 28/18 Q1014 NOSIG=

Extra information for GMMI:More info

Metar Taf Metar & Taf Last 4 Metars F.Rules Stats Wind Profile Meteogram Temp Stats Airport Information Weather charts Add Link Nearby VenuesMetar ALERT Operation Metar Decoded Social comments